Medanos, Argentina
Current Conditions -  °F | °C
As of 6:00 AM on Sunday 21 Dec 2014 (Local Time) from SAZM Reporting Station
Clear Clear  
Wind Chill: 61°   Ceiling: Unl
Heat Index: 61°   Visibility: 6mi
Dew Point: 41°   Wind: 6mph
Humidity: 48%   Direction: 180°S
Pressure: 29.8"   Gusts: NA
Location:  38.83°S, 62.68°W
Report Text: SAZM 210900Z 18005KT CAVOK 16/05 Q1009
Loading
Personal Weather Stations






























Interactive Weather Map New forecast layout! Learn more

10-Day Weather Forecast

Advertisements
Track Severe Weather on mobile